createdAt,value
2018-04-27T00:01:32.776Z,48.8
2018-04-27T00:11:47.585Z,48.4
2018-04-27T00:22:35.119Z,48.5
2018-04-27T00:32:50.117Z,49.2
2018-04-27T00:43:03.866Z,49.4
2018-04-27T00:53:17.854Z,49.1
2018-04-27T01:03:32.322Z,48.9
2018-04-27T01:13:45.974Z,48.6
2018-04-27T01:24:00.421Z,48.8
2018-04-27T01:34:15.019Z,48.2
2018-04-27T01:44:27.511Z,48.1
2018-04-27T01:54:42.682Z,47.8
2018-04-27T02:05:29.748Z,48.0
2018-04-27T02:15:44.823Z,47.5
2018-04-27T02:25:59.569Z,47.4
2018-04-27T02:36:19.803Z,47.7
2018-04-27T02:46:34.195Z,47.8
2018-04-27T02:57:20.924Z,47.9
2018-04-27T03:07:42.554Z,48.0
2018-04-27T03:17:57.030Z,48.3
2018-04-27T03:28:09.342Z,48.8
2018-04-27T03:38:54.989Z,49.3
2018-04-27T03:49:40.988Z,49.6
2018-04-27T04:00:56.217Z,49.6
2018-04-27T04:11:50.651Z,49.5
2018-04-27T04:23:01.615Z,49.4
2018-04-27T04:33:42.840Z,49.4
2018-04-27T04:44:12.441Z,49.6
2018-04-27T04:55:04.949Z,49.7
2018-04-27T05:16:37.511Z,50.8
2018-04-27T05:27:35.902Z,51.4
2018-04-27T05:49:13.944Z,52.4
2018-04-27T05:59:28.499Z,52.0
2018-04-27T06:09:40.716Z,52.1
2018-04-27T06:19:54.890Z,52.4
2018-04-27T06:30:07.389Z,53.5
2018-04-27T06:40:21.287Z,54.6
2018-04-27T06:50:35.377Z,54.4
2018-04-27T07:12:50.320Z,54.2
2018-04-27T07:33:39.623Z,54.6
2018-04-27T07:58:11.995Z,50.4
2018-04-27T08:08:26.476Z,47.6
2018-04-27T08:18:43.311Z,46.4
2018-04-27T08:29:09.360Z,45.2
2018-04-27T08:40:26.758Z,43.0
2018-04-27T08:53:26.216Z,41.3
2018-04-27T09:04:04.980Z,39.7
2018-04-27T09:14:33.868Z,38.7
2018-04-27T09:24:58.640Z,39.4
2018-04-27T09:35:36.361Z,40.7
2018-04-27T09:46:36.180Z,42.1
2018-04-27T09:56:51.279Z,40.8
2018-04-27T10:07:51.269Z,39.9
2018-04-27T10:18:17.519Z,40.5
2018-04-27T10:28:34.806Z,39.6
2018-04-27T10:39:04.767Z,39.7
2018-04-27T11:01:42.414Z,38.5
2018-04-27T11:22:33.313Z,37.5
2018-04-27T11:43:13.189Z,38.5
2018-04-27T11:53:45.674Z,38.4
2018-04-27T12:16:04.931Z,39.2
2018-04-27T12:27:04.235Z,39.9
2018-04-27T13:00:21.612Z,39.1
2018-04-27T13:12:35.834Z,39.6
2018-04-27T13:34:27.277Z,39.3
2018-04-27T14:01:27.710Z,40.9
2018-04-27T14:11:52.489Z,41.1
2018-04-27T14:22:13.889Z,41.4
2018-04-27T14:42:44.047Z,41.9
2018-04-27T14:52:58.624Z,41.4
2018-04-27T15:03:12.504Z,41.7
2018-04-27T15:24:40.137Z,42.1
2018-04-27T15:35:08.554Z,42.3
2018-04-27T15:45:22.547Z,42.7
2018-04-27T16:09:06.149Z,42.7
2018-04-27T16:44:48.187Z,42.6
2018-04-27T21:06:57.381Z,43.6
2018-04-27T22:33:04.011Z,43.0
2018-04-27T22:44:53.856Z,43.8
2018-04-27T23:23:28.961Z,44.7
2018-04-27T23:46:48.668Z,44.4
2018-04-27T23:59:14.173Z,45.9
